Time;durP1;ratioP1;P1;durP2;ratioP2;P2;SDS_P1;SDS_P2;PMS_P1;PMS_P2;Temp;Humidity;BMP_temperature;BMP_pressure;BME280_temperature;BME280_humidity;BME280_pressure;Samples;Min_cycle;Max_cycle;Signal;HPM_P1;HPM_P2
2021/11/23 00:01:28;;;;;;;;;;;16.40;40.60;;;;;;8363358;28;19923;-51
2021/11/23 00:05:28;;;;;;;;;;;16.40;41.20;;;;;;8363388;28;19920;-58
2021/11/23 00:09:29;;;;;;;;;;;16.30;40.60;;;;;;8362803;28;19918;-53
2021/11/23 00:13:29;;;;;;;;;;;16.40;40.60;;;;;;8363341;28;19916;-51
2021/11/23 00:17:30;;;;;;;;;;;16.40;40.60;;;;;;8363599;28;19927;-53
2021/11/23 00:21:30;;;;;;;;;;;16.30;40.60;;;;;;8369612;28;20007;-52
2021/11/23 00:25:31;;;;;;;;;;;16.30;40.60;;;;;;8369640;28;20356;-50
2021/11/23 00:29:32;;;;;;;;;;;16.30;40.60;;;;;;8369637;28;20369;-49
2021/11/23 00:33:40;;;;;;;;;;;16.30;40.60;;;;;;8369041;28;19925;-51
2021/11/23 00:37:43;;;;;;;;;;;16.30;40.60;;;;;;8371693;28;19928;-49
2021/11/23 00:41:47;;;;;;;;;;;16.30;40.60;;;;;;8368974;28;20372;-50
2021/11/23 00:45:48;;;;;;;;;;;16.30;40.60;;;;;;8369529;28;19962;-49
2021/11/23 00:49:48;;;;;;;;;;;16.30;40.60;;;;;;8368986;28;19924;-49
2021/11/23 00:53:48;;;;;;;;;;;16.30;40.60;;;;;;8368363;28;19987;-48
2021/11/23 00:57:49;;;;;;;;;;;16.30;40.70;;;;;;8368952;28;20342;-52
2021/11/23 01:01:49;;;;;;;;;;;16.30;40.60;;;;;;8368833;28;19913;-50
2021/11/23 01:05:50;;;;;;;;;;;16.30;40.60;;;;;;8368375;28;19916;-49
2021/11/23 01:09:50;;;;;;;;;;;16.30;40.60;;;;;;8368376;28;20016;-47
2021/11/23 01:13:51;;;;;;;;;;;16.30;40.60;;;;;;8368172;28;19940;-49
2021/11/23 01:17:51;;;;;;;;;;;16.30;40.60;;;;;;8367509;28;20313;-49
2021/11/23 01:21:51;;;;;;;;;;;16.30;41.20;;;;;;8368506;28;19912;-48
2021/11/23 01:25:55;;;;;;;;;;;16.30;40.60;;;;;;8367909;28;20468;-48
2021/11/23 01:29:56;;;;;;;;;;;16.30;40.60;;;;;;8366332;28;19917;-49
2021/11/23 01:33:56;;;;;;;;;;;16.30;40.60;;;;;;8367906;28;20297;-49
2021/11/23 01:37:57;;;;;;;;;;;16.30;40.60;;;;;;8367510;28;19925;-48
2021/11/23 01:41:57;;;;;;;;;;;16.30;40.60;;;;;;8367296;28;19912;-49
2021/11/23 01:45:58;;;;;;;;;;;16.30;40.60;;;;;;8367132;28;19977;-48
2021/11/23 01:49:58;;;;;;;;;;;16.30;40.60;;;;;;8367041;28;19921;-48
2021/11/23 01:53:59;;;;;;;;;;;16.30;40.70;;;;;;8366523;28;20294;-47
2021/11/23 01:58:01;;;;;;;;;;;16.30;40.60;;;;;;8366650;28;20386;-48
2021/11/23 02:02:02;;;;;;;;;;;16.30;40.60;;;;;;8365927;28;19913;-49
2021/11/23 02:06:04;;;;;;;;;;;16.30;40.60;;;;;;8366125;28;19939;-48
2021/11/23 02:10:09;;;;;;;;;;;16.30;40.60;;;;;;8366529;28;19917;-49
2021/11/23 02:14:10;;;;;;;;;;;16.30;40.60;;;;;;8366163;28;19969;-48
2021/11/23 02:18:21;;;;;;;;;;;16.30;40.60;;;;;;8365799;28;19929;-48
2021/11/23 02:22:22;;;;;;;;;;;16.30;40.60;;;;;;8366318;28;19919;-49
2021/11/23 02:26:23;;;;;;;;;;;16.30;40.50;;;;;;8366186;28;19920;-48
2021/11/23 02:30:23;;;;;;;;;;;16.30;40.60;;;;;;8365363;28;19978;-48
2021/11/23 02:34:24;;;;;;;;;;;16.20;40.50;;;;;;8365660;28;19924;-48
2021/11/23 02:38:25;;;;;;;;;;;16.30;40.50;;;;;;8365543;28;19925;-49
2021/11/23 02:42:25;;;;;;;;;;;16.20;40.50;;;;;;8365231;28;19956;-48
2021/11/23 02:46:26;;;;;;;;;;;16.20;40.50;;;;;;8365426;28;19921;-49
2021/11/23 02:50:27;;;;;;;;;;;16.20;40.50;;;;;;8365385;28;19917;-48
2021/11/23 02:54:27;;;;;;;;;;;16.20;40.40;;;;;;8364479;28;19916;-49
2021/11/23 02:58:31;;;;;;;;;;;16.20;40.40;;;;;;8364817;28;20441;-48
2021/11/23 03:02:32;;;;;;;;;;;16.20;40.50;;;;;;8365013;28;19917;-48
2021/11/23 03:06:32;;;;;;;;;;;16.20;40.50;;;;;;8364545;28;19979;-49
2021/11/23 03:10:33;;;;;;;;;;;16.30;40.50;;;;;;8364812;28;20007;-48
2021/11/23 03:14:33;;;;;;;;;;;16.20;40.50;;;;;;8364583;28;19924;-48
2021/11/23 03:18:33;;;;;;;;;;;16.20;40.40;;;;;;8364073;28;19925;-49
2021/11/23 03:22:34;;;;;;;;;;;16.20;40.40;;;;;;8364419;28;20391;-48
2021/11/23 03:26:34;;;;;;;;;;;16.20;40.50;;;;;;8363816;28;19916;-45
2021/11/23 03:30:35;;;;;;;;;;;16.20;40.40;;;;;;8364258;28;20385;-49
2021/11/23 03:34:37;;;;;;;;;;;16.20;40.40;;;;;;8364006;28;20255;-47
2021/11/23 03:38:38;;;;;;;;;;;16.20;40.30;;;;;;8363418;28;20374;-47
2021/11/23 03:42:38;;;;;;;;;;;16.20;40.40;;;;;;8364030;28;19916;-50
2021/11/23 03:46:39;;;;;;;;;;;16.20;40.30;;;;;;8363613;28;19921;-47
2021/11/23 03:50:40;;;;;;;;;;;16.20;40.40;;;;;;8363034;28;20362;-48
2021/11/23 03:54:41;;;;;;;;;;;16.20;40.30;;;;;;8362308;28;19924;-48
2021/11/23 03:58:41;;;;;;;;;;;16.20;40.30;;;;;;8363758;28;19932;-48
2021/11/23 04:02:43;;;;;;;;;;;16.20;40.30;;;;;;8363101;28;19956;-49
2021/11/23 04:06:43;;;;;;;;;;;16.20;40.90;;;;;;8363294;28;19917;-50
2021/11/23 04:10:43;;;;;;;;;;;16.20;40.40;;;;;;8363136;28;19923;-48
2021/11/23 04:14:44;;;;;;;;;;;16.20;40.40;;;;;;8362791;28;20393;-51
2021/11/23 04:18:44;;;;;;;;;;;16.20;40.50;;;;;;8362754;28;19925;-51
2021/11/23 04:22:45;;;;;;;;;;;16.10;40.40;;;;;;8363419;28;19912;-48
2021/11/23 04:26:45;;;;;;;;;;;16.10;40.40;;;;;;8362642;28;19918;-48
2021/11/23 04:30:46;;;;;;;;;;;16.10;40.30;;;;;;8362915;28;19995;-51
2021/11/23 04:34:46;;;;;;;;;;;16.10;40.40;;;;;;8362871;28;19917;-48
2021/11/23 04:38:47;;;;;;;;;;;16.10;40.40;;;;;;8362318;28;19932;-48
2021/11/23 04:42:47;;;;;;;;;;;16.20;40.40;;;;;;8363106;28;19913;-48
2021/11/23 04:46:48;;;;;;;;;;;16.20;40.40;;;;;;8361580;28;19921;-48
2021/11/23 04:50:49;;;;;;;;;;;16.20;40.30;;;;;;8362166;28;19935;-48
2021/11/23 04:54:49;;;;;;;;;;;16.20;40.30;;;;;;8362816;28;20381;-48
2021/11/23 04:58:50;;;;;;;;;;;16.20;40.30;;;;;;8362309;28;19964;-49
2021/11/23 05:02:50;;;;;;;;;;;16.20;40.30;;;;;;8362235;28;19913;-50
2021/11/23 05:06:51;;;;;;;;;;;16.20;40.20;;;;;;8366816;28;19924;-49
2021/11/23 05:10:51;;;;;;;;;;;16.20;40.30;;;;;;8367015;28;19924;-48
2021/11/23 05:14:52;;;;;;;;;;;16.20;40.30;;;;;;8367779;28;20336;-47
2021/11/23 05:18:52;;;;;;;;;;;16.20;40.30;;;;;;8367855;28;20021;-50
2021/11/23 05:22:52;;;;;;;;;;;16.20;40.20;;;;;;8368108;28;19987;-48
2021/11/23 05:26:53;;;;;;;;;;;16.20;40.20;;;;;;8367587;28;20485;-48
2021/11/23 05:30:54;;;;;;;;;;;16.20;40.20;;;;;;8368048;28;19917;-48
2021/11/23 05:34:54;;;;;;;;;;;16.20;40.20;;;;;;8367573;28;19928;-47
2021/11/23 05:38:55;;;;;;;;;;;16.20;40.20;;;;;;8366915;28;19943;-49
2021/11/23 05:42:55;;;;;;;;;;;16.20;40.20;;;;;;8367831;28;20011;-49
2021/11/23 05:46:56;;;;;;;;;;;16.20;40.20;;;;;;8367522;28;19917;-47
2021/11/23 05:51:02;;;;;;;;;;;16.20;40.20;;;;;;8366759;28;20460;-48
2021/11/23 05:55:03;;;;;;;;;;;16.20;40.20;;;;;;8367106;28;19920;-48
2021/11/23 05:59:03;;;;;;;;;;;16.20;40.20;;;;;;8366709;28;19921;-48
2021/11/23 06:03:04;;;;;;;;;;;16.20;40.20;;;;;;8366613;28;19913;-48
2021/11/23 06:07:04;;;;;;;;;;;16.20;40.20;;;;;;8366652;28;19924;-48
2021/11/23 06:11:05;;;;;;;;;;;16.20;40.10;;;;;;8366610;28;20007;-47
2021/11/23 06:15:08;;;;;;;;;;;16.20;40.10;;;;;;8365771;28;19924;-48
2021/11/23 06:19:09;;;;;;;;;;;16.20;40.10;;;;;;8366182;28;19978;-49
2021/11/23 06:23:10;;;;;;;;;;;16.20;40.20;;;;;;8366208;28;19927;-50
2021/11/23 06:27:10;;;;;;;;;;;16.20;40.10;;;;;;8365681;28;20004;-49
2021/11/23 06:31:11;;;;;;;;;;;16.20;40.20;;;;;;8365772;28;19964;-49
2021/11/23 06:35:12;;;;;;;;;;;16.20;40.10;;;;;;8365717;28;19917;-49
2021/11/23 06:39:13;;;;;;;;;;;16.20;40.20;;;;;;8365147;28;20404;-49
2021/11/23 06:43:13;;;;;;;;;;;16.20;40.10;;;;;;8365594;28;19966;-49
2021/11/23 06:47:14;;;;;;;;;;;16.20;40.10;;;;;;8365343;28;19916;-50
2021/11/23 06:51:15;;;;;;;;;;;16.20;40.20;;;;;;8364746;28;19924;-50
2021/11/23 06:55:15;;;;;;;;;;;16.20;40.20;;;;;;8365058;28;19920;-50
2021/11/23 06:59:16;;;;;;;;;;;16.20;40.20;;;;;;8364931;28;19955;-51
2021/11/23 07:03:16;;;;;;;;;;;16.20;40.10;;;;;;8364518;28;19920;-48
2021/11/23 07:07:17;;;;;;;;;;;16.20;40.20;;;;;;8364956;28;20267;-51
2021/11/23 07:11:17;;;;;;;;;;;16.20;40.20;;;;;;8364373;28;19917;-50
2021/11/23 07:15:18;;;;;;;;;;;16.20;40.10;;;;;;8363888;28;19923;-53
2021/11/23 07:19:19;;;;;;;;;;;16.20;40.10;;;;;;8364589;28;20370;-50
2021/11/23 07:23:19;;;;;;;;;;;16.20;40.10;;;;;;8364398;28;19916;-48
2021/11/23 07:27:20;;;;;;;;;;;16.20;40.10;;;;;;8363067;28;19917;-50
2021/11/23 07:31:20;;;;;;;;;;;16.20;40.10;;;;;;8363906;28;19917;-49
2021/11/23 07:35:21;;;;;;;;;;;16.20;40.10;;;;;;8364135;28;20267;-49
2021/11/23 07:39:21;;;;;;;;;;;16.20;40.10;;;;;;8363656;28;20266;-48
2021/11/23 07:43:22;;;;;;;;;;;16.20;40.10;;;;;;8363638;28;20326;-50
2021/11/23 07:47:24;;;;;;;;;;;16.20;40.10;;;;;;8363541;28;20012;-50
2021/11/23 07:51:24;;;;;;;;;;;16.20;40.10;;;;;;8363035;28;19923;-49
2021/11/23 07:55:25;;;;;;;;;;;16.20;40.10;;;;;;8363159;28;20297;-48
2021/11/23 07:59:25;;;;;;;;;;;16.20;40.10;;;;;;8363375;28;19921;-49
2021/11/23 08:03:27;;;;;;;;;;;16.20;40.00;;;;;;8361916;28;21279;-49
2021/11/23 08:07:30;;;;;;;;;;;16.20;40.00;;;;;;8349077;28;19917;-50
2021/11/23 08:11:31;;;;;;;;;;;16.20;40.00;;;;;;8345623;28;19917;-49
2021/11/23 08:15:34;;;;;;;;;;;16.20;40.00;;;;;;8362643;28;19921;-50
2021/11/23 08:19:35;;;;;;;;;;;16.20;40.00;;;;;;8362972;28;20019;-48
2021/11/23 08:23:35;;;;;;;;;;;16.20;40.00;;;;;;8362450;28;20285;-50
2021/11/23 08:27:36;;;;;;;;;;;16.20;40.00;;;;;;8362665;28;19923;-50
2021/11/23 08:31:36;;;;;;;;;;;16.20;39.90;;;;;;8362937;28;19916;-50
2021/11/23 08:35:37;;;;;;;;;;;16.20;40.00;;;;;;8362310;28;19924;-49
2021/11/23 08:39:38;;;;;;;;;;;16.20;39.90;;;;;;8365334;28;19921;-49
2021/11/23 08:43:39;;;;;;;;;;;16.20;39.90;;;;;;8369264;28;19917;-48
2021/11/23 08:47:40;;;;;;;;;;;16.20;39.90;;;;;;8368736;28;19928;-50
2021/11/23 08:51:41;;;;;;;;;;;16.20;39.90;;;;;;8369396;28;19917;-50
2021/11/23 08:55:42;;;;;;;;;;;16.20;39.90;;;;;;8369089;28;19921;-49
2021/11/23 08:59:43;;;;;;;;;;;16.30;40.00;;;;;;8368484;28;20293;-48
2021/11/23 09:03:43;;;;;;;;;;;16.20;39.90;;;;;;8369001;28;20401;-49
2021/11/23 09:07:44;;;;;;;;;;;16.30;39.90;;;;;;8368688;28;19921;-49
2021/11/23 09:11:44;;;;;;;;;;;16.30;39.90;;;;;;8367864;28;19923;-52
2021/11/23 09:15:46;;;;;;;;;;;16.30;39.90;;;;;;8368375;28;19927;-49
2021/11/23 09:19:46;;;;;;;;;;;16.20;39.90;;;;;;8368307;28;19928;-48
2021/11/23 09:23:47;;;;;;;;;;;16.30;39.90;;;;;;8367475;28;19917;-50
2021/11/23 09:27:47;;;;;;;;;;;16.30;39.90;;;;;;8367708;28;19917;-49
2021/11/23 09:31:48;;;;;;;;;;;16.30;39.90;;;;;;8367615;28;19978;-49
2021/11/23 09:35:49;;;;;;;;;;;16.30;39.90;;;;;;8367133;28;20011;-49
2021/11/23 09:39:49;;;;;;;;;;;16.30;39.90;;;;;;8367496;28;20393;-48
2021/11/23 09:43:49;;;;;;;;;;;16.30;39.90;;;;;;8367318;28;19916;-49
2021/11/23 09:47:50;;;;;;;;;;;16.30;39.90;;;;;;8367097;28;20328;-49
2021/11/23 09:51:51;;;;;;;;;;;16.30;39.90;;;;;;8366726;28;19962;-48
2021/11/23 09:55:53;;;;;;;;;;;16.30;39.90;;;;;;8366861;28;19921;-49
2021/11/23 09:59:54;;;;;;;;;;;16.30;39.90;;;;;;8366536;28;20301;-49
2021/11/23 10:03:55;;;;;;;;;;;16.30;39.90;;;;;;8366988;28;19916;-49
2021/11/23 10:07:55;;;;;;;;;;;16.30;39.90;;;;;;8366489;28;19923;-49
2021/11/23 10:12:11;;;;;;;;;;;16.30;39.80;;;;;;8366095;28;19917;-51
2021/11/23 10:16:12;;;;;;;;;;;16.30;39.80;;;;;;8365110;28;20313;-50
2021/11/23 10:20:25;;;;;;;;;;;16.30;39.90;;;;;;8366491;28;19923;-49
2021/11/23 10:24:25;;;;;;;;;;;16.30;39.80;;;;;;8365564;28;20410;-48
2021/11/23 10:28:27;;;;;;;;;;;16.30;39.80;;;;;;8366062;28;19917;-52
2021/11/23 10:32:39;;;;;;;;;;;16.30;39.80;;;;;;8366263;28;19917;-51
2021/11/23 10:36:41;;;;;;;;;;;16.30;39.80;;;;;;8365434;28;20038;-50
2021/11/23 10:40:43;;;;;;;;;;;16.30;39.80;;;;;;8365552;28;19920;-51
2021/11/23 10:44:52;;;;;;;;;;;16.30;39.80;;;;;;8365130;28;20415;-50
2021/11/23 10:48:56;;;;;;;;;;;16.30;39.80;;;;;;8365296;28;20296;-49
2021/11/23 10:53:02;;;;;;;;;;;16.30;39.80;;;;;;8365125;28;19998;-49
2021/11/23 10:57:04;;;;;;;;;;;16.30;39.80;;;;;;8365046;28;20340;-49
2021/11/23 11:01:05;;;;;;;;;;;16.30;39.80;;;;;;8364828;28;19913;-50
2021/11/23 11:05:10;;;;;;;;;;;16.30;39.80;;;;;;8363392;28;19917;-51
2021/11/23 11:09:11;;;;;;;;;;;16.30;39.80;;;;;;8364093;28;19916;-50
2021/11/23 11:13:12;;;;;;;;;;;16.30;39.80;;;;;;8364760;28;19952;-50
2021/11/23 11:17:13;;;;;;;;;;;16.30;39.80;;;;;;8364608;28;20397;-53
2021/11/23 11:21:13;;;;;;;;;;;16.30;39.70;;;;;;8363917;28;19917;-51
2021/11/23 11:25:25;;;;;;;;;;;16.30;39.70;;;;;;8364542;28;19924;-50
2021/11/23 11:29:29;;;;;;;;;;;16.30;39.70;;;;;;8364034;28;19990;-50
2021/11/23 11:33:30;;;;;;;;;;;16.30;39.70;;;;;;8363468;28;19920;-49
2021/11/23 11:37:34;;;;;;;;;;;16.30;39.70;;;;;;8363696;28;19925;-47
2021/11/23 11:41:40;;;;;;;;;;;16.30;39.70;;;;;;8363397;28;19920;-48
2021/11/23 11:45:41;;;;;;;;;;;16.30;39.70;;;;;;8364027;28;19999;-48
2021/11/23 11:50:03;;;;;;;;;;;16.40;39.70;;;;;;8363753;28;20392;-49
2021/11/23 11:54:17;;;;;;;;;;;16.30;39.70;;;;;;8363067;28;19959;-48
2021/11/23 11:58:36;;;;;;;;;;;16.30;39.70;;;;;;8363822;28;19929;-48
2021/11/23 12:02:36;;;;;;;;;;;16.30;39.70;;;;;;8362950;28;19982;-48
2021/11/23 12:06:55;;;;;;;;;;;16.30;39.70;;;;;;8363608;28;19917;-48
2021/11/23 12:10:59;;;;;;;;;;;16.40;39.80;;;;;;8363589;28;20050;-48
2021/11/23 12:15:09;;;;;;;;;;;16.40;39.80;;;;;;8365832;28;19949;-49
2021/11/23 12:19:24;;;;;;;;;;;16.40;39.70;;;;;;8370151;28;19971;-48
2021/11/23 12:23:37;;;;;;;;;;;16.40;39.70;;;;;;8372986;28;19986;-47
2021/11/23 12:27:42;;;;;;;;;;;16.30;39.70;;;;;;8369577;28;19963;-51
2021/11/23 12:31:44;;;;;;;;;;;16.40;39.60;;;;;;8369979;28;20422;-50
2021/11/23 12:35:45;;;;;;;;;;;16.30;39.60;;;;;;8369323;28;19921;-50
2021/11/23 12:39:48;;;;;;;;;;;16.30;39.60;;;;;;8369278;28;19925;-47
2021/11/23 12:43:49;;;;;;;;;;;16.30;39.60;;;;;;8369405;28;19944;-49
2021/11/23 12:47:50;;;;;;;;;;;16.30;39.60;;;;;;8368927;28;19995;-48
2021/11/23 12:51:58;;;;;;;;;;;16.40;39.60;;;;;;8369420;28;20046;-49
2021/11/23 12:55:59;;;;;;;;;;;16.40;39.60;;;;;;8369566;28;19927;-48
2021/11/23 13:00:02;;;;;;;;;;;16.30;39.60;;;;;;8368382;28;19924;-52
2021/11/23 13:04:03;;;;;;;;;;;16.30;39.60;;;;;;8368766;28;19924;-51
2021/11/23 13:08:07;;;;;;;;;;;16.40;39.60;;;;;;8368299;28;19917;-51
2021/11/23 13:12:08;;;;;;;;;;;16.30;39.60;;;;;;8367865;28;19971;-49
2021/11/23 13:16:11;;;;;;;;;;;16.30;39.60;;;;;;8368377;28;19912;-51
2021/11/23 13:20:24;;;;;;;;;;;16.40;39.60;;;;;;8367995;28;19929;-49
2021/11/23 13:24:25;;;;;;;;;;;16.30;39.60;;;;;;8367489;28;20373;-50
2021/11/23 13:28:26;;;;;;;;;;;16.30;39.60;;;;;;8366999;28;19923;-49
2021/11/23 13:32:27;;;;;;;;;;;16.40;39.60;;;;;;8367685;28;20309;-49
2021/11/23 13:36:55;;;;;;;;;;;16.40;39.60;;;;;;8367330;28;19931;-50
2021/11/23 13:40:56;;;;;;;;;;;16.30;39.60;;;;;;8364827;28;20019;-49
2021/11/23 13:45:09;;;;;;;;;;;16.30;39.60;;;;;;8366913;28;19940;-50
2021/11/23 13:49:12;;;;;;;;;;;16.40;39.60;;;;;;8367084;28;20007;-52
2021/11/23 13:53:12;;;;;;;;;;;16.30;39.50;;;;;;8367039;28;19916;-48
2021/11/23 13:57:14;;;;;;;;;;;16.30;39.60;;;;;;8366801;28;19975;-52
2021/11/23 14:01:15;;;;;;;;;;;16.30;39.50;;;;;;8366904;28;19936;-49
2021/11/23 14:05:36;;;;;;;;;;;16.30;39.60;;;;;;8366640;28;19917;-48
2021/11/23 14:09:54;;;;;;;;;;;16.30;39.50;;;;;;8366407;28;19924;-49
2021/11/23 14:13:59;;;;;;;;;;;16.40;39.60;;;;;;8357554;28;19981;-50
2021/11/23 14:18:11;;;;;;;;;;;16.30;39.60;;;;;;8365684;28;19925;-51
2021/11/23 14:22:11;;;;;;;;;;;16.40;39.60;;;;;;8366429;28;20378;-50
2021/11/23 14:26:28;;;;;;;;;;;16.30;39.50;;;;;;8366377;28;19920;-51
2021/11/23 14:30:28;;;;;;;;;;;16.30;39.50;;;;;;8365446;28;20004;-50
2021/11/23 14:34:29;;;;;;;;;;;16.40;39.60;;;;;;8365898;28;19928;-48
2021/11/23 14:38:30;;;;;;;;;;;16.30;39.50;;;;;;8365426;28;20020;-51
2021/11/23 14:42:30;;;;;;;;;;;16.30;39.60;;;;;;8365064;28;19924;-49
2021/11/23 14:46:31;;;;;;;;;;;16.40;39.60;;;;;;8365845;28;19921;-49
2021/11/23 14:50:31;;;;;;;;;;;16.30;39.50;;;;;;8365317;28;19960;-51
2021/11/23 14:54:32;;;;;;;;;;;16.30;39.60;;;;;;8364432;28;20015;-47
2021/11/23 14:58:33;;;;;;;;;;;16.40;39.60;;;;;;8365086;28;19945;-52
2021/11/23 15:02:33;;;;;;;;;;;16.30;39.60;;;;;;8364670;28;20377;-50
2021/11/23 15:06:34;;;;;;;;;;;16.30;39.60;;;;;;8364680;28;20016;-50
2021/11/23 15:10:36;;;;;;;;;;;16.30;39.60;;;;;;8364506;28;19924;-50
2021/11/23 15:14:36;;;;;;;;;;;16.30;39.60;;;;;;8364003;28;19970;-49
2021/11/23 15:18:37;;;;;;;;;;;16.30;39.50;;;;;;8364757;28;19924;-50
2021/11/23 15:22:38;;;;;;;;;;;16.30;39.60;;;;;;8364433;28;19959;-48
2021/11/23 15:26:38;;;;;;;;;;;16.30;39.60;;;;;;8364052;28;20278;-48
2021/11/23 15:30:40;;;;;;;;;;;16.30;39.60;;;;;;8363919;28;20274;-49
2021/11/23 15:34:40;;;;;;;;;;;16.30;39.60;;;;;;8364203;28;20293;-51
2021/11/23 15:38:41;;;;;;;;;;;16.30;39.60;;;;;;8363270;28;19932;-52
2021/11/23 15:42:42;;;;;;;;;;;16.30;39.60;;;;;;8364003;28;19913;-50
2021/11/23 15:46:43;;;;;;;;;;;16.30;39.60;;;;;;8364136;28;20392;-51
2021/11/23 15:50:43;;;;;;;;;;;16.30;39.50;;;;;;8362662;28;19916;-49
2021/11/23 15:54:44;;;;;;;;;;;16.30;39.60;;;;;;8363792;28;19917;-50
2021/11/23 15:58:45;;;;;;;;;;;16.30;39.60;;;;;;8363252;28;19986;-51
2021/11/23 16:02:45;;;;;;;;;;;16.30;39.60;;;;;;8362946;28;19999;-49
2021/11/23 16:06:46;;;;;;;;;;;16.30;39.60;;;;;;8363532;28;19917;-49
2021/11/23 16:10:46;;;;;;;;;;;16.30;39.60;;;;;;8363087;28;19924;-50
2021/11/23 16:14:47;;;;;;;;;;;16.30;39.60;;;;;;8362720;28;19916;-48
2021/11/23 16:18:47;;;;;;;;;;;16.30;39.60;;;;;;8363037;28;19924;-49
2021/11/23 16:22:48;;;;;;;;;;;16.30;39.60;;;;;;8363197;28;19913;-48
2021/11/23 16:26:48;;;;;;;;;;;16.30;39.60;;;;;;8362448;28;19939;-48
2021/11/23 16:30:49;;;;;;;;;;;16.30;39.50;;;;;;8362973;28;19924;-48
2021/11/23 16:34:52;;;;;;;;;;;16.20;39.50;;;;;;8362766;28;20520;-51
2021/11/23 16:38:53;;;;;;;;;;;16.20;39.50;;;;;;8362199;28;20372;-51
2021/11/23 16:42:53;;;;;;;;;;;16.20;39.50;;;;;;8363056;28;19923;-51
2021/11/23 16:46:54;;;;;;;;;;;16.30;39.50;;;;;;8362855;28;19917;-48
2021/11/23 16:50:54;;;;;;;;;;;16.30;39.60;;;;;;8362021;28;19966;-48
2021/11/23 16:54:55;;;;;;;;;;;16.30;39.50;;;;;;8362565;28;19964;-48
2021/11/23 16:58:56;;;;;;;;;;;16.20;39.50;;;;;;8361394;28;20275;-47
2021/11/23 17:02:56;;;;;;;;;;;16.20;39.20;;;;;;8361818;28;19917;-48
2021/11/23 17:06:57;;;;;;;;;;;16.20;39.60;;;;;;8362939;28;19932;-47
2021/11/23 17:10:57;;;;;;;;;;;16.30;39.80;;;;;;8356349;28;19982;-50
2021/11/23 17:14:58;;;;;;;;;;;16.30;39.50;;;;;;8357063;28;20353;-49
2021/11/23 17:18:59;;;;;;;;;;;16.30;40.20;;;;;;8357809;28;19962;-50
2021/11/23 17:22:59;;;;;;;;;;;16.40;40.30;;;;;;8356864;28;19916;-48
2021/11/23 17:27:06;;;;;;;;;;;16.40;40.20;;;;;;8341170;28;19921;-50
2021/11/23 17:31:06;;;;;;;;;;;16.50;40.30;;;;;;8347256;28;19920;-47
2021/11/23 17:35:08;;;;;;;;;;;16.60;40.60;;;;;;8356759;28;19928;-47
2021/11/23 17:39:09;;;;;;;;;;;16.60;40.60;;;;;;8356528;28;20343;-47
2021/11/23 17:43:10;;;;;;;;;;;16.60;40.60;;;;;;8357552;28;19924;-47
2021/11/23 17:47:33;;;;;;;;;;;16.70;40.70;;;;;;8356979;28;19976;-49
2021/11/23 17:51:31;;;;;;;;;;;16.70;40.90;;;;;;8356336;28;19924;-48
2021/11/23 17:55:32;;;;;;;;;;;16.80;40.90;;;;;;8356390;28;19932;-47
2021/11/23 17:59:32;;;;;;;;;;;16.70;40.80;;;;;;8356479;28;19928;-50
2021/11/23 18:03:33;;;;;;;;;;;16.60;38.40;;;;;;8356349;28;19916;-47
2021/11/23 18:07:33;;;;;;;;;;;16.60;39.50;;;;;;8356484;28;19920;-49
2021/11/23 18:11:35;;;;;;;;;;;16.60;39.90;;;;;;8355835;28;19920;-48
2021/11/23 18:15:35;;;;;;;;;;;16.70;39.90;;;;;;8356559;28;19920;-48
2021/11/23 18:19:37;;;;;;;;;;;16.70;39.80;;;;;;8355584;28;19951;-48
2021/11/23 18:23:38;;;;;;;;;;;16.80;39.90;;;;;;8354637;28;19921;-47
2021/11/23 18:27:38;;;;;;;;;;;16.80;39.90;;;;;;8355332;28;20266;-48
2021/11/23 18:31:39;;;;;;;;;;;16.90;40.20;;;;;;8355913;28;19927;-48
2021/11/23 18:35:39;;;;;;;;;;;16.90;40.40;;;;;;8354659;28;20370;-49
2021/11/23 18:39:41;;;;;;;;;;;17.00;40.60;;;;;;8355780;28;19936;-47
2021/11/23 18:43:42;;;;;;;;;;;17.00;40.60;;;;;;8355920;28;19917;-48
2021/11/23 18:47:42;;;;;;;;;;;17.00;40.80;;;;;;8354579;28;20279;-48
2021/11/23 18:51:43;;;;;;;;;;;17.00;40.90;;;;;;8348264;28;19921;-48
2021/11/23 18:55:44;;;;;;;;;;;17.10;41.00;;;;;;8336798;28;19927;-46
2021/11/23 18:59:45;;;;;;;;;;;17.10;41.10;;;;;;8351625;28;20358;-47
2021/11/23 19:03:45;;;;;;;;;;;17.10;38.60;;;;;;8352833;28;20401;-48
2021/11/23 19:07:45;;;;;;;;;;;16.90;38.40;;;;;;8354344;28;19920;-47
2021/11/23 19:11:46;;;;;;;;;;;16.90;39.90;;;;;;8353755;28;19921;-48
2021/11/23 19:15:47;;;;;;;;;;;17.00;39.80;;;;;;8354830;28;19920;-47
2021/11/23 19:19:47;;;;;;;;;;;17.00;39.80;;;;;;8353710;28;19935;-48
2021/11/23 19:23:48;;;;;;;;;;;17.10;39.90;;;;;;8353466;28;20289;-48
2021/11/23 19:27:48;;;;;;;;;;;17.10;39.90;;;;;;8353661;28;19921;-52
2021/11/23 19:31:49;;;;;;;;;;;17.20;40.00;;;;;;8351423;28;20306;-47
2021/11/23 19:35:49;;;;;;;;;;;17.20;39.90;;;;;;8351762;28;20637;-48
2021/11/23 19:39:50;;;;;;;;;;;17.20;39.90;;;;;;8353329;28;19933;-47
2021/11/23 19:43:56;;;;;;;;;;;17.20;39.80;;;;;;8353639;28;19921;-47
2021/11/23 19:47:56;;;;;;;;;;;17.20;39.80;;;;;;8354629;28;20370;-47
2021/11/23 19:52:00;;;;;;;;;;;17.20;39.80;;;;;;8353296;28;19928;-48
2021/11/23 19:56:00;;;;;;;;;;;17.20;39.80;;;;;;8353048;28;19929;-47
2021/11/23 20:00:02;;;;;;;;;;;17.30;39.90;;;;;;8355440;28;19924;-49
2021/11/23 20:04:03;;;;;;;;;;;17.30;39.90;;;;;;8362957;28;19948;-49
2021/11/23 20:08:04;;;;;;;;;;;17.30;39.90;;;;;;8363376;28;19916;-47
2021/11/23 20:12:05;;;;;;;;;;;17.30;40.00;;;;;;8345516;28;20013;-49
2021/11/23 20:16:06;;;;;;;;;;;17.30;40.00;;;;;;8360153;28;19924;-47
2021/11/23 20:20:07;;;;;;;;;;;17.30;40.00;;;;;;8363084;28;19925;-47
2021/11/23 20:24:07;;;;;;;;;;;17.30;40.00;;;;;;8362894;28;20420;-47
2021/11/23 20:28:08;;;;;;;;;;;17.30;40.00;;;;;;8362886;28;20047;-47
2021/11/23 20:32:09;;;;;;;;;;;17.30;40.00;;;;;;8362817;28;19920;-50
2021/11/23 20:36:11;;;;;;;;;;;17.30;40.10;;;;;;8366421;28;19921;-49
2021/11/23 20:40:12;;;;;;;;;;;17.30;40.10;;;;;;8370429;28;19928;-48
2021/11/23 20:44:13;;;;;;;;;;;17.30;40.20;;;;;;8370369;28;20055;-46
2021/11/23 20:48:14;;;;;;;;;;;17.30;40.20;;;;;;8372848;28;19980;-48
2021/11/23 20:52:17;;;;;;;;;;;17.30;40.20;;;;;;8371144;28;19917;-50
2021/11/23 20:56:18;;;;;;;;;;;17.30;40.20;;;;;;8369459;28;20281;-50
2021/11/23 21:00:19;;;;;;;;;;;17.30;40.20;;;;;;8368207;28;20047;-47
2021/11/23 21:04:19;;;;;;;;;;;17.40;40.20;;;;;;8369061;28;19919;-47
2021/11/23 21:08:20;;;;;;;;;;;17.40;40.20;;;;;;8368118;28;19928;-47
2021/11/23 21:12:20;;;;;;;;;;;17.40;40.20;;;;;;8367019;28;20007;-48
2021/11/23 21:16:21;;;;;;;;;;;17.30;39.80;;;;;;8367754;28;19986;-49
2021/11/23 21:20:23;;;;;;;;;;;17.30;39.90;;;;;;8366346;28;20500;-50
2021/11/23 21:24:24;;;;;;;;;;;17.30;39.90;;;;;;8367319;28;19942;-49
2021/11/23 21:28:24;;;;;;;;;;;17.30;39.70;;;;;;8367375;28;19924;-49
2021/11/23 21:32:25;;;;;;;;;;;17.30;39.70;;;;;;8367355;28;19917;-48
2021/11/23 21:36:27;;;;;;;;;;;17.20;39.60;;;;;;8366905;28;20006;-47
2021/11/23 21:40:31;;;;;;;;;;;17.20;39.60;;;;;;8367036;28;19924;-48
2021/11/23 21:44:36;;;;;;;;;;;17.20;39.70;;;;;;8367319;28;20284;-50
2021/11/23 21:48:36;;;;;;;;;;;17.20;39.70;;;;;;8365957;28;20454;-48
2021/11/23 21:52:37;;;;;;;;;;;17.20;39.80;;;;;;8366971;28;19917;-47
2021/11/23 21:56:37;;;;;;;;;;;17.20;39.70;;;;;;8366204;28;19967;-48
2021/11/23 22:00:38;;;;;;;;;;;17.20;39.70;;;;;;8366494;28;19920;-50
2021/11/23 22:04:38;;;;;;;;;;;17.10;39.80;;;;;;8366920;28;20247;-47
2021/11/23 22:08:39;;;;;;;;;;;17.10;39.70;;;;;;8365925;28;20366;-47
2021/11/23 22:12:40;;;;;;;;;;;17.10;39.70;;;;;;8366765;28;20065;-48
2021/11/23 22:16:44;;;;;;;;;;;17.10;39.70;;;;;;8366779;28;19921;-49
2021/11/23 22:20:44;;;;;;;;;;;17.10;39.70;;;;;;8366024;28;19916;-48
2021/11/23 22:24:45;;;;;;;;;;;17.00;39.60;;;;;;8366392;28;19966;-47
2021/11/23 22:28:46;;;;;;;;;;;17.00;39.60;;;;;;8366003;28;19969;-48
2021/11/23 22:32:46;;;;;;;;;;;17.00;39.60;;;;;;8365594;28;19916;-49
2021/11/23 22:36:46;;;;;;;;;;;17.00;39.60;;;;;;8365667;28;19960;-48
2021/11/23 22:40:47;;;;;;;;;;;17.00;39.50;;;;;;8365872;28;19925;-47
2021/11/23 22:44:47;;;;;;;;;;;17.00;39.50;;;;;;8365361;28;19921;-47
2021/11/23 22:48:48;;;;;;;;;;;16.90;39.40;;;;;;8365366;28;19924;-48
2021/11/23 22:52:49;;;;;;;;;;;16.90;39.40;;;;;;8365341;28;19924;-47
2021/11/23 22:56:50;;;;;;;;;;;16.90;39.40;;;;;;8365420;28;19924;-47
2021/11/23 23:00:52;;;;;;;;;;;16.90;39.40;;;;;;8366788;28;19924;-48
2021/11/23 23:04:52;;;;;;;;;;;16.90;39.50;;;;;;8365205;28;19913;-50
2021/11/23 23:08:52;;;;;;;;;;;16.90;39.50;;;;;;8364434;28;20294;-50
2021/11/23 23:12:53;;;;;;;;;;;16.90;39.50;;;;;;8359529;28;20433;-50
2021/11/23 23:16:53;;;;;;;;;;;16.90;39.40;;;;;;8364612;28;20374;-48
2021/11/23 23:20:54;;;;;;;;;;;16.80;39.40;;;;;;8364111;28;19920;-48
2021/11/23 23:24:54;;;;;;;;;;;16.90;39.40;;;;;;8364590;28;19913;-50